sensor_id;sensor_type;location;lat;lon;timestamp;temperature;humidity
16200;DHT22;8207;52.494;4.654;2023-04-16T00:01:55;8.80;99.90
16200;DHT22;8207;52.494;4.654;2023-04-16T00:04:22;8.80;99.90
16200;DHT22;8207;52.494;4.654;2023-04-16T00:06:48;8.80;99.90
16200;DHT22;8207;52.494;4.654;2023-04-16T00:09:16;8.80;99.90
16200;DHT22;8207;52.494;4.654;2023-04-16T00:11:43;8.80;99.90
16200;DHT22;8207;52.494;4.654;2023-04-16T00:14:11;8.80;99.90
16200;DHT22;8207;52.494;4.654;2023-04-16T00:16:38;8.70;99.90
16200;DHT22;8207;52.494;4.654;2023-04-16T00:19:05;8.80;99.90
16200;DHT22;8207;52.494;4.654;2023-04-16T00:21:32;8.80;99.90
16200;DHT22;8207;52.494;4.654;2023-04-16T00:23:58;8.70;99.90
16200;DHT22;8207;52.494;4.654;2023-04-16T00:26:25;8.80;99.90
16200;DHT22;8207;52.494;4.654;2023-04-16T00:28:52;8.80;99.90
16200;DHT22;8207;52.494;4.654;2023-04-16T00:31:26;8.80;99.90
16200;DHT22;8207;52.494;4.654;2023-04-16T00:33:54;8.70;99.90
16200;DHT22;8207;52.494;4.654;2023-04-16T00:36:22;8.70;99.90
16200;DHT22;8207;52.494;4.654;2023-04-16T00:38:49;8.60;99.90
16200;DHT22;8207;52.494;4.654;2023-04-16T00:41:16;8.60;99.90
16200;DHT22;8207;52.494;4.654;2023-04-16T00:43:43;8.70;99.90
16200;DHT22;8207;52.494;4.654;2023-04-16T00:46:11;8.70;99.90
16200;DHT22;8207;52.494;4.654;2023-04-16T00:48:39;8.70;99.90
16200;DHT22;8207;52.494;4.654;2023-04-16T00:51:07;8.70;99.90
16200;DHT22;8207;52.494;4.654;2023-04-16T00:53:34;8.70;99.90
16200;DHT22;8207;52.494;4.654;2023-04-16T00:56:02;8.70;99.90
16200;DHT22;8207;52.494;4.654;2023-04-16T00:58:29;8.80;99.90
16200;DHT22;8207;52.494;4.654;2023-04-16T01:00:56;8.80;99.90
16200;DHT22;8207;52.494;4.654;2023-04-16T01:03:23;8.70;99.90
16200;DHT22;8207;52.494;4.654;2023-04-16T01:05:54;8.80;99.90
16200;DHT22;8207;52.494;4.654;2023-04-16T01:08:22;8.80;99.90
16200;DHT22;8207;52.494;4.654;2023-04-16T01:10:49;8.80;99.90
16200;DHT22;8207;52.494;4.654;2023-04-16T01:13:16;8.80;99.90
16200;DHT22;8207;52.494;4.654;2023-04-16T01:15:43;8.80;99.90
16200;DHT22;8207;52.494;4.654;2023-04-16T01:18:14;8.80;99.90
16200;DHT22;8207;52.494;4.654;2023-04-16T01:20:42;8.80;99.90
16200;DHT22;8207;52.494;4.654;2023-04-16T01:23:10;8.80;99.90
16200;DHT22;8207;52.494;4.654;2023-04-16T01:25:37;8.80;99.90
16200;DHT22;8207;52.494;4.654;2023-04-16T01:28:04;8.80;99.90
16200;DHT22;8207;52.494;4.654;2023-04-16T01:30:31;8.80;99.90
16200;DHT22;8207;52.494;4.654;2023-04-16T01:32:58;8.80;99.90
16200;DHT22;8207;52.494;4.654;2023-04-16T01:35:25;8.80;99.90
16200;DHT22;8207;52.494;4.654;2023-04-16T01:37:53;8.80;99.90
16200;DHT22;8207;52.494;4.654;2023-04-16T01:40:20;8.80;99.90
16200;DHT22;8207;52.494;4.654;2023-04-16T01:42:47;8.80;99.90
16200;DHT22;8207;52.494;4.654;2023-04-16T01:45:14;8.80;99.90
16200;DHT22;8207;52.494;4.654;2023-04-16T01:47:41;8.80;99.90
16200;DHT22;8207;52.494;4.654;2023-04-16T01:50:09;8.80;99.90
16200;DHT22;8207;52.494;4.654;2023-04-16T01:52:36;8.80;99.90
16200;DHT22;8207;52.494;4.654;2023-04-16T01:55:05;8.90;99.90
16200;DHT22;8207;52.494;4.654;2023-04-16T01:57:32;8.90;99.90
16200;DHT22;8207;52.494;4.654;2023-04-16T01:59:58;8.90;99.90
16200;DHT22;8207;52.494;4.654;2023-04-16T02:02:25;8.80;99.90
16200;DHT22;8207;52.494;4.654;2023-04-16T02:04:54;8.80;99.90
16200;DHT22;8207;52.494;4.654;2023-04-16T02:07:21;8.80;99.90
16200;DHT22;8207;52.494;4.654;2023-04-16T02:09:48;8.80;99.90
16200;DHT22;8207;52.494;4.654;2023-04-16T02:12:17;8.90;99.90
16200;DHT22;8207;52.494;4.654;2023-04-16T02:14:44;8.90;99.90
16200;DHT22;8207;52.494;4.654;2023-04-16T02:17:11;8.90;99.90
16200;DHT22;8207;52.494;4.654;2023-04-16T02:19:38;8.80;99.90
16200;DHT22;8207;52.494;4.654;2023-04-16T02:22:05;8.80;99.90
16200;DHT22;8207;52.494;4.654;2023-04-16T02:24:31;8.90;99.90
16200;DHT22;8207;52.494;4.654;2023-04-16T02:26:58;8.90;99.90
16200;DHT22;8207;52.494;4.654;2023-04-16T02:29:27;8.90;99.90
16200;DHT22;8207;52.494;4.654;2023-04-16T02:31:54;8.90;99.90
16200;DHT22;8207;52.494;4.654;2023-04-16T02:34:21;8.80;99.90
16200;DHT22;8207;52.494;4.654;2023-04-16T02:36:48;8.90;99.90
16200;DHT22;8207;52.494;4.654;2023-04-16T02:39:14;8.90;99.90
16200;DHT22;8207;52.494;4.654;2023-04-16T02:41:41;8.90;99.90
16200;DHT22;8207;52.494;4.654;2023-04-16T02:44:08;8.90;99.90
16200;DHT22;8207;52.494;4.654;2023-04-16T02:46:37;8.90;99.90
16200;DHT22;8207;52.494;4.654;2023-04-16T02:49:04;8.90;99.90
16200;DHT22;8207;52.494;4.654;2023-04-16T02:51:30;8.90;99.90
16200;DHT22;8207;52.494;4.654;2023-04-16T02:53:57;8.90;99.90
16200;DHT22;8207;52.494;4.654;2023-04-16T02:56:24;8.90;99.90
16200;DHT22;8207;52.494;4.654;2023-04-16T02:58:51;8.90;99.90
16200;DHT22;8207;52.494;4.654;2023-04-16T03:01:18;8.80;99.90
16200;DHT22;8207;52.494;4.654;2023-04-16T03:03:46;8.80;99.90
16200;DHT22;8207;52.494;4.654;2023-04-16T03:06:13;8.80;99.90
16200;DHT22;8207;52.494;4.654;2023-04-16T03:08:40;8.90;99.90
16200;DHT22;8207;52.494;4.654;2023-04-16T03:11:07;8.90;99.90
16200;DHT22;8207;52.494;4.654;2023-04-16T03:13:33;8.90;99.90
16200;DHT22;8207;52.494;4.654;2023-04-16T03:16:00;8.90;99.90
16200;DHT22;8207;52.494;4.654;2023-04-16T03:18:27;8.90;99.90
16200;DHT22;8207;52.494;4.654;2023-04-16T03:20:55;8.90;99.90
16200;DHT22;8207;52.494;4.654;2023-04-16T03:23:22;8.90;99.90
16200;DHT22;8207;52.494;4.654;2023-04-16T03:25:49;8.90;99.90
16200;DHT22;8207;52.494;4.654;2023-04-16T03:28:16;8.90;99.90
16200;DHT22;8207;52.494;4.654;2023-04-16T03:30:49;8.90;99.90
16200;DHT22;8207;52.494;4.654;2023-04-16T03:33:16;8.90;99.90
16200;DHT22;8207;52.494;4.654;2023-04-16T03:35:43;8.80;99.90
16200;DHT22;8207;52.494;4.654;2023-04-16T03:38:11;8.80;99.90
16200;DHT22;8207;52.494;4.654;2023-04-16T03:40:38;8.80;99.90
16200;DHT22;8207;52.494;4.654;2023-04-16T03:43:05;8.80;99.90
16200;DHT22;8207;52.494;4.654;2023-04-16T03:45:32;8.80;99.90
16200;DHT22;8207;52.494;4.654;2023-04-16T03:47:59;8.80;99.90
16200;DHT22;8207;52.494;4.654;2023-04-16T03:50:26;8.80;99.90
16200;DHT22;8207;52.494;4.654;2023-04-16T03:52:53;8.80;99.90
16200;DHT22;8207;52.494;4.654;2023-04-16T03:55:21;8.80;99.90
16200;DHT22;8207;52.494;4.654;2023-04-16T03:57:48;8.70;99.90
16200;DHT22;8207;52.494;4.654;2023-04-16T04:00:15;8.70;99.90
16200;DHT22;8207;52.494;4.654;2023-04-16T04:02:42;8.70;99.90
16200;DHT22;8207;52.494;4.654;2023-04-16T04:05:09;8.70;99.90
16200;DHT22;8207;52.494;4.654;2023-04-16T04:07:36;8.80;99.90
16200;DHT22;8207;52.494;4.654;2023-04-16T04:10:03;8.80;99.90
16200;DHT22;8207;52.494;4.654;2023-04-16T04:12:32;8.80;99.90
16200;DHT22;8207;52.494;4.654;2023-04-16T04:14:59;8.70;99.90
16200;DHT22;8207;52.494;4.654;2023-04-16T04:17:26;8.70;99.90
16200;DHT22;8207;52.494;4.654;2023-04-16T04:19:53;8.70;99.90
16200;DHT22;8207;52.494;4.654;2023-04-16T04:22:20;8.70;99.90
16200;DHT22;8207;52.494;4.654;2023-04-16T04:24:47;8.70;99.90
16200;DHT22;8207;52.494;4.654;2023-04-16T04:27:13;8.70;99.90
16200;DHT22;8207;52.494;4.654;2023-04-16T04:29:42;8.70;99.90
16200;DHT22;8207;52.494;4.654;2023-04-16T04:32:09;8.60;99.90
16200;DHT22;8207;52.494;4.654;2023-04-16T04:34:35;8.60;99.90
16200;DHT22;8207;52.494;4.654;2023-04-16T04:37:02;8.70;99.90
16200;DHT22;8207;52.494;4.654;2023-04-16T04:39:29;8.70;99.90
16200;DHT22;8207;52.494;4.654;2023-04-16T04:41:56;8.70;99.90
16200;DHT22;8207;52.494;4.654;2023-04-16T04:44:23;8.70;99.90
16200;DHT22;8207;52.494;4.654;2023-04-16T04:46:51;8.70;99.90
16200;DHT22;8207;52.494;4.654;2023-04-16T04:49:18;8.70;99.90
16200;DHT22;8207;52.494;4.654;2023-04-16T04:51:45;8.70;99.90
16200;DHT22;8207;52.494;4.654;2023-04-16T04:54:13;8.70;99.90
16200;DHT22;8207;52.494;4.654;2023-04-16T04:56:40;8.70;99.90
16200;DHT22;8207;52.494;4.654;2023-04-16T04:59:10;8.70;99.90
16200;DHT22;8207;52.494;4.654;2023-04-16T05:01:37;8.70;99.90
16200;DHT22;8207;52.494;4.654;2023-04-16T05:04:05;8.70;99.90
16200;DHT22;8207;52.494;4.654;2023-04-16T05:06:33;8.80;99.90
16200;DHT22;8207;52.494;4.654;2023-04-16T05:09:00;8.70;99.90
16200;DHT22;8207;52.494;4.654;2023-04-16T05:11:28;8.70;99.90
16200;DHT22;8207;52.494;4.654;2023-04-16T05:13:55;8.70;99.90
16200;DHT22;8207;52.494;4.654;2023-04-16T05:16:22;8.80;99.90
16200;DHT22;8207;52.494;4.654;2023-04-16T05:18:49;8.80;99.90
16200;DHT22;8207;52.494;4.654;2023-04-16T05:21:17;8.80;99.90
16200;DHT22;8207;52.494;4.654;2023-04-16T05:23:44;8.80;99.90
16200;DHT22;8207;52.494;4.654;2023-04-16T05:26:11;8.80;99.90
16200;DHT22;8207;52.494;4.654;2023-04-16T05:28:38;8.70;99.90
16200;DHT22;8207;52.494;4.654;2023-04-16T05:31:05;8.70;99.90
16200;DHT22;8207;52.494;4.654;2023-04-16T05:33:32;8.70;99.90
16200;DHT22;8207;52.494;4.654;2023-04-16T05:35:59;8.70;99.90
16200;DHT22;8207;52.494;4.654;2023-04-16T05:38:27;8.70;99.90
16200;DHT22;8207;52.494;4.654;2023-04-16T05:40:54;8.80;99.90
16200;DHT22;8207;52.494;4.654;2023-04-16T05:43:21;8.80;99.90
16200;DHT22;8207;52.494;4.654;2023-04-16T05:45:48;8.80;99.90
16200;DHT22;8207;52.494;4.654;2023-04-16T05:48:15;8.80;99.90
16200;DHT22;8207;52.494;4.654;2023-04-16T05:50:42;8.80;99.90
16200;DHT22;8207;52.494;4.654;2023-04-16T05:53:09;8.80;99.90
16200;DHT22;8207;52.494;4.654;2023-04-16T05:55:37;8.80;99.90
16200;DHT22;8207;52.494;4.654;2023-04-16T05:58:04;8.80;99.90
16200;DHT22;8207;52.494;4.654;2023-04-16T06:00:31;8.80;99.90
16200;DHT22;8207;52.494;4.654;2023-04-16T06:02:58;8.80;99.90
16200;DHT22;8207;52.494;4.654;2023-04-16T06:05:26;8.80;99.90
16200;DHT22;8207;52.494;4.654;2023-04-16T06:07:52;8.80;99.90
16200;DHT22;8207;52.494;4.654;2023-04-16T06:10:20;8.80;99.90
16200;DHT22;8207;52.494;4.654;2023-04-16T06:12:48;8.80;99.90
16200;DHT22;8207;52.494;4.654;2023-04-16T06:15:15;8.80;99.90
16200;DHT22;8207;52.494;4.654;2023-04-16T06:17:42;8.80;99.90
16200;DHT22;8207;52.494;4.654;2023-04-16T06:20:11;8.90;99.90
16200;DHT22;8207;52.494;4.654;2023-04-16T06:22:38;8.80;99.90
16200;DHT22;8207;52.494;4.654;2023-04-16T06:25:06;8.80;99.90
16200;DHT22;8207;52.494;4.654;2023-04-16T06:27:32;8.90;99.90
16200;DHT22;8207;52.494;4.654;2023-04-16T06:30:01;8.80;99.90
16200;DHT22;8207;52.494;4.654;2023-04-16T06:32:28;8.80;99.90
16200;DHT22;8207;52.494;4.654;2023-04-16T06:34:55;8.90;99.90
16200;DHT22;8207;52.494;4.654;2023-04-16T06:37:23;8.90;99.90
16200;DHT22;8207;52.494;4.654;2023-04-16T06:39:50;8.90;99.90
16200;DHT22;8207;52.494;4.654;2023-04-16T06:42:31;8.80;99.90
16200;DHT22;8207;52.494;4.654;2023-04-16T06:44:58;8.90;99.90
16200;DHT22;8207;52.494;4.654;2023-04-16T06:47:26;8.80;99.90
16200;DHT22;8207;52.494;4.654;2023-04-16T06:49:53;8.90;99.90
16200;DHT22;8207;52.494;4.654;2023-04-16T06:52:20;8.90;99.90
16200;DHT22;8207;52.494;4.654;2023-04-16T06:54:47;9.00;99.90
16200;DHT22;8207;52.494;4.654;2023-04-16T06:57:14;9.00;99.90
16200;DHT22;8207;52.494;4.654;2023-04-16T06:59:41;9.00;99.90
16200;DHT22;8207;52.494;4.654;2023-04-16T07:02:09;9.00;99.90
16200;DHT22;8207;52.494;4.654;2023-04-16T07:04:37;9.00;99.90
16200;DHT22;8207;52.494;4.654;2023-04-16T07:07:04;9.00;99.90
16200;DHT22;8207;52.494;4.654;2023-04-16T07:09:31;8.90;99.90
16200;DHT22;8207;52.494;4.654;2023-04-16T07:11:58;8.90;99.90
16200;DHT22;8207;52.494;4.654;2023-04-16T07:14:24;8.90;99.90
16200;DHT22;8207;52.494;4.654;2023-04-16T07:16:52;9.00;99.90
16200;DHT22;8207;52.494;4.654;2023-04-16T07:19:18;9.00;99.90
16200;DHT22;8207;52.494;4.654;2023-04-16T07:21:47;9.00;99.90
16200;DHT22;8207;52.494;4.654;2023-04-16T07:24:14;9.00;99.90
16200;DHT22;8207;52.494;4.654;2023-04-16T07:26:41;9.10;99.90
16200;DHT22;8207;52.494;4.654;2023-04-16T07:29:08;9.10;99.90
16200;DHT22;8207;52.494;4.654;2023-04-16T07:31:35;9.20;99.90
16200;DHT22;8207;52.494;4.654;2023-04-16T07:34:02;9.10;99.90
16200;DHT22;8207;52.494;4.654;2023-04-16T07:36:29;9.20;99.90
16200;DHT22;8207;52.494;4.654;2023-04-16T07:38:57;9.20;99.90
16200;DHT22;8207;52.494;4.654;2023-04-16T07:41:24;9.20;99.90
16200;DHT22;8207;52.494;4.654;2023-04-16T07:43:51;9.20;99.90
16200;DHT22;8207;52.494;4.654;2023-04-16T07:46:18;9.20;99.90
16200;DHT22;8207;52.494;4.654;2023-04-16T07:48:45;9.30;99.90
16200;DHT22;8207;52.494;4.654;2023-04-16T07:51:12;9.30;99.90
16200;DHT22;8207;52.494;4.654;2023-04-16T07:53:39;9.30;99.90
16200;DHT22;8207;52.494;4.654;2023-04-16T07:56:08;9.30;99.90
16200;DHT22;8207;52.494;4.654;2023-04-16T07:58:35;9.40;99.90
16200;DHT22;8207;52.494;4.654;2023-04-16T08:01:02;9.40;99.90
16200;DHT22;8207;52.494;4.654;2023-04-16T08:03:29;9.40;99.90
16200;DHT22;8207;52.494;4.654;2023-04-16T08:05:56;9.40;99.90
16200;DHT22;8207;52.494;4.654;2023-04-16T08:08:23;9.50;99.90
16200;DHT22;8207;52.494;4.654;2023-04-16T08:10:49;9.50;99.90
16200;DHT22;8207;52.494;4.654;2023-04-16T08:13:21;9.50;99.90
16200;DHT22;8207;52.494;4.654;2023-04-16T08:15:48;9.50;99.90
16200;DHT22;8207;52.494;4.654;2023-04-16T08:18:15;9.60;99.90
16200;DHT22;8207;52.494;4.654;2023-04-16T08:20:42;9.60;99.90
16200;DHT22;8207;52.494;4.654;2023-04-16T08:23:09;9.60;99.90
16200;DHT22;8207;52.494;4.654;2023-04-16T08:25:36;9.60;99.90
16200;DHT22;8207;52.494;4.654;2023-04-16T08:28:03;9.70;99.90
16200;DHT22;8207;52.494;4.654;2023-04-16T08:30:31;9.70;99.90
16200;DHT22;8207;52.494;4.654;2023-04-16T08:32:58;9.70;99.90
16200;DHT22;8207;52.494;4.654;2023-04-16T08:35:26;9.70;99.90
16200;DHT22;8207;52.494;4.654;2023-04-16T08:37:53;9.80;99.90
16200;DHT22;8207;52.494;4.654;2023-04-16T08:40:20;9.80;99.90
16200;DHT22;8207;52.494;4.654;2023-04-16T08:42:52;9.80;99.90
16200;DHT22;8207;52.494;4.654;2023-04-16T08:45:20;9.90;99.90
16200;DHT22;8207;52.494;4.654;2023-04-16T08:47:50;9.90;99.90
16200;DHT22;8207;52.494;4.654;2023-04-16T08:50:22;9.80;99.90
16200;DHT22;8207;52.494;4.654;2023-04-16T08:52:51;9.80;99.90
16200;DHT22;8207;52.494;4.654;2023-04-16T08:55:21;9.80;99.90
16200;DHT22;8207;52.494;4.654;2023-04-16T08:57:53;9.80;99.90
16200;DHT22;8207;52.494;4.654;2023-04-16T09:00:20;9.80;99.90
16200;DHT22;8207;52.494;4.654;2023-04-16T09:02:48;9.80;99.90
16200;DHT22;8207;52.494;4.654;2023-04-16T09:05:16;9.80;99.90
16200;DHT22;8207;52.494;4.654;2023-04-16T09:07:45;9.80;99.90
16200;DHT22;8207;52.494;4.654;2023-04-16T09:10:13;9.90;99.90
16200;DHT22;8207;52.494;4.654;2023-04-16T09:12:41;9.80;99.90
16200;DHT22;8207;52.494;4.654;2023-04-16T09:15:09;9.80;99.90
16200;DHT22;8207;52.494;4.654;2023-04-16T09:17:36;9.80;99.90
16200;DHT22;8207;52.494;4.654;2023-04-16T09:20:07;9.80;99.90
16200;DHT22;8207;52.494;4.654;2023-04-16T09:22:35;9.90;99.90
16200;DHT22;8207;52.494;4.654;2023-04-16T09:25:03;9.90;99.90
16200;DHT22;8207;52.494;4.654;2023-04-16T09:27:30;9.90;99.90
16200;DHT22;8207;52.494;4.654;2023-04-16T09:29:57;9.90;99.90
16200;DHT22;8207;52.494;4.654;2023-04-16T09:32:25;9.90;99.90
16200;DHT22;8207;52.494;4.654;2023-04-16T09:34:54;9.90;99.90
16200;DHT22;8207;52.494;4.654;2023-04-16T09:37:30;9.90;99.90
16200;DHT22;8207;52.494;4.654;2023-04-16T09:39:59;9.90;99.90
16200;DHT22;8207;52.494;4.654;2023-04-16T09:42:27;10.00;99.90
16200;DHT22;8207;52.494;4.654;2023-04-16T09:44:55;10.00;99.90
16200;DHT22;8207;52.494;4.654;2023-04-16T09:47:24;10.00;99.90
16200;DHT22;8207;52.494;4.654;2023-04-16T09:49:51;10.00;99.90
16200;DHT22;8207;52.494;4.654;2023-04-16T09:52:19;10.10;99.90
16200;DHT22;8207;52.494;4.654;2023-04-16T09:54:48;10.10;99.90
16200;DHT22;8207;52.494;4.654;2023-04-16T09:57:19;10.10;99.90
16200;DHT22;8207;52.494;4.654;2023-04-16T09:59:47;10.10;99.90
16200;DHT22;8207;52.494;4.654;2023-04-16T10:02:13;10.10;99.90
16200;DHT22;8207;52.494;4.654;2023-04-16T10:04:47;10.20;99.90
16200;DHT22;8207;52.494;4.654;2023-04-16T10:07:14;10.20;99.90
16200;DHT22;8207;52.494;4.654;2023-04-16T10:09:41;10.20;99.90
16200;DHT22;8207;52.494;4.654;2023-04-16T10:12:09;10.20;99.90
16200;DHT22;8207;52.494;4.654;2023-04-16T10:14:38;10.10;99.90
16200;DHT22;8207;52.494;4.654;2023-04-16T10:17:05;10.10;99.90
16200;DHT22;8207;52.494;4.654;2023-04-16T10:19:33;10.20;99.90
16200;DHT22;8207;52.494;4.654;2023-04-16T10:22:00;10.20;99.90
16200;DHT22;8207;52.494;4.654;2023-04-16T10:24:27;10.20;99.90
16200;DHT22;8207;52.494;4.654;2023-04-16T10:26:55;10.30;99.90
16200;DHT22;8207;52.494;4.654;2023-04-16T10:29:25;10.30;99.90
16200;DHT22;8207;52.494;4.654;2023-04-16T10:31:53;10.30;99.90
16200;DHT22;8207;52.494;4.654;2023-04-16T10:34:21;10.30;99.90
16200;DHT22;8207;52.494;4.654;2023-04-16T10:36:50;10.30;99.90
16200;DHT22;8207;52.494;4.654;2023-04-16T10:39:19;10.30;99.90
16200;DHT22;8207;52.494;4.654;2023-04-16T10:41:46;10.30;99.90
16200;DHT22;8207;52.494;4.654;2023-04-16T10:44:16;10.30;99.90
16200;DHT22;8207;52.494;4.654;2023-04-16T10:46:46;10.30;99.90
16200;DHT22;8207;52.494;4.654;2023-04-16T10:49:15;10.30;99.90
16200;DHT22;8207;52.494;4.654;2023-04-16T10:51:52;10.40;99.90
16200;DHT22;8207;52.494;4.654;2023-04-16T10:54:22;10.40;99.90
16200;DHT22;8207;52.494;4.654;2023-04-16T10:56:49;10.30;99.90
16200;DHT22;8207;52.494;4.654;2023-04-16T10:59:18;10.40;99.90
16200;DHT22;8207;52.494;4.654;2023-04-16T11:01:48;10.40;99.90
16200;DHT22;8207;52.494;4.654;2023-04-16T11:04:43;10.40;99.90
16200;DHT22;8207;52.494;4.654;2023-04-16T11:07:20;10.50;99.90
16200;DHT22;8207;52.494;4.654;2023-04-16T11:09:57;10.50;99.90
16200;DHT22;8207;52.494;4.654;2023-04-16T11:12:26;10.60;99.90
16200;DHT22;8207;52.494;4.654;2023-04-16T11:15:00;10.60;99.90
16200;DHT22;8207;52.494;4.654;2023-04-16T11:17:31;10.60;99.90
16200;DHT22;8207;52.494;4.654;2023-04-16T11:19:58;10.60;99.90
16200;DHT22;8207;52.494;4.654;2023-04-16T11:22:26;10.60;99.90
16200;DHT22;8207;52.494;4.654;2023-04-16T11:24:54;10.60;99.90
16200;DHT22;8207;52.494;4.654;2023-04-16T11:27:21;10.70;99.90
16200;DHT22;8207;52.494;4.654;2023-04-16T11:29:56;10.70;99.90
16200;DHT22;8207;52.494;4.654;2023-04-16T11:32:23;10.70;99.90
16200;DHT22;8207;52.494;4.654;2023-04-16T11:34:51;10.80;99.90
16200;DHT22;8207;52.494;4.654;2023-04-16T11:37:30;10.70;99.90
16200;DHT22;8207;52.494;4.654;2023-04-16T11:39:58;10.80;99.90
16200;DHT22;8207;52.494;4.654;2023-04-16T11:42:26;10.80;99.90
16200;DHT22;8207;52.494;4.654;2023-04-16T11:44:54;10.80;99.90
16200;DHT22;8207;52.494;4.654;2023-04-16T11:47:22;10.90;99.90
16200;DHT22;8207;52.494;4.654;2023-04-16T11:49:50;10.90;99.90
16200;DHT22;8207;52.494;4.654;2023-04-16T11:52:24;10.90;99.90
16200;DHT22;8207;52.494;4.654;2023-04-16T11:54:52;10.90;99.90
16200;DHT22;8207;52.494;4.654;2023-04-16T11:57:26;10.90;99.90
16200;DHT22;8207;52.494;4.654;2023-04-16T11:59:53;11.00;99.90
16200;DHT22;8207;52.494;4.654;2023-04-16T12:05:31;11.10;99.90
16200;DHT22;8207;52.494;4.654;2023-04-16T12:08:01;11.00;99.90
16200;DHT22;8207;52.494;4.654;2023-04-16T12:10:28;11.10;99.90
16200;DHT22;8207;52.494;4.654;2023-04-16T12:13:10;11.10;99.90
16200;DHT22;8207;52.494;4.654;2023-04-16T12:15:45;11.20;99.90
16200;DHT22;8207;52.494;4.654;2023-04-16T12:18:12;11.20;99.90
16200;DHT22;8207;52.494;4.654;2023-04-16T12:20:42;11.20;99.90
16200;DHT22;8207;52.494;4.654;2023-04-16T12:23:10;11.30;99.90
16200;DHT22;8207;52.494;4.654;2023-04-16T12:25:47;11.30;99.90
16200;DHT22;8207;52.494;4.654;2023-04-16T12:28:26;11.30;99.90
16200;DHT22;8207;52.494;4.654;2023-04-16T12:30:53;11.30;99.90
16200;DHT22;8207;52.494;4.654;2023-04-16T12:33:21;11.30;99.90
16200;DHT22;8207;52.494;4.654;2023-04-16T12:35:49;11.40;99.90
16200;DHT22;8207;52.494;4.654;2023-04-16T12:38:17;11.40;99.90
16200;DHT22;8207;52.494;4.654;2023-04-16T12:40:45;11.50;99.90
16200;DHT22;8207;52.494;4.654;2023-04-16T12:43:12;11.60;99.90
16200;DHT22;8207;52.494;4.654;2023-04-16T12:45:39;11.70;99.90
16200;DHT22;8207;52.494;4.654;2023-04-16T12:48:06;11.70;99.90
16200;DHT22;8207;52.494;4.654;2023-04-16T12:50:33;11.70;99.90
16200;DHT22;8207;52.494;4.654;2023-04-16T12:53:01;11.80;99.90
16200;DHT22;8207;52.494;4.654;2023-04-16T12:55:28;11.80;99.90
16200;DHT22;8207;52.494;4.654;2023-04-16T12:57:55;11.80;99.90
16200;DHT22;8207;52.494;4.654;2023-04-16T13:00:22;11.80;99.90
16200;DHT22;8207;52.494;4.654;2023-04-16T13:02:49;11.90;99.90
16200;DHT22;8207;52.494;4.654;2023-04-16T13:05:16;11.90;99.90
16200;DHT22;8207;52.494;4.654;2023-04-16T13:07:44;11.90;99.90
16200;DHT22;8207;52.494;4.654;2023-04-16T13:10:12;11.90;99.90
16200;DHT22;8207;52.494;4.654;2023-04-16T13:12:39;11.90;99.90
16200;DHT22;8207;52.494;4.654;2023-04-16T13:15:07;11.90;99.90
16200;DHT22;8207;52.494;4.654;2023-04-16T13:17:34;11.90;99.90
16200;DHT22;8207;52.494;4.654;2023-04-16T13:20:01;12.00;99.90
16200;DHT22;8207;52.494;4.654;2023-04-16T13:22:28;12.10;99.90
16200;DHT22;8207;52.494;4.654;2023-04-16T13:24:55;12.10;99.90
16200;DHT22;8207;52.494;4.654;2023-04-16T13:27:24;12.10;99.90
16200;DHT22;8207;52.494;4.654;2023-04-16T13:29:51;12.20;99.90
16200;DHT22;8207;52.494;4.654;2023-04-16T13:32:18;12.30;99.90
16200;DHT22;8207;52.494;4.654;2023-04-16T13:34:45;12.40;99.90
16200;DHT22;8207;52.494;4.654;2023-04-16T13:37:12;12.50;99.90
16200;DHT22;8207;52.494;4.654;2023-04-16T13:39:38;12.60;99.90
16200;DHT22;8207;52.494;4.654;2023-04-16T13:42:05;12.60;99.90
16200;DHT22;8207;52.494;4.654;2023-04-16T13:44:34;12.60;99.90
16200;DHT22;8207;52.494;4.654;2023-04-16T13:47:01;12.50;99.90
16200;DHT22;8207;52.494;4.654;2023-04-16T13:49:27;12.30;99.90
16200;DHT22;8207;52.494;4.654;2023-04-16T13:51:55;12.30;99.90
16200;DHT22;8207;52.494;4.654;2023-04-16T13:54:22;12.30;99.90
16200;DHT22;8207;52.494;4.654;2023-04-16T13:56:49;12.30;99.90
16200;DHT22;8207;52.494;4.654;2023-04-16T13:59:16;12.30;99.90
16200;DHT22;8207;52.494;4.654;2023-04-16T14:01:46;12.30;99.90
16200;DHT22;8207;52.494;4.654;2023-04-16T14:04:12;12.30;99.90
16200;DHT22;8207;52.494;4.654;2023-04-16T14:06:39;12.30;99.90
16200;DHT22;8207;52.494;4.654;2023-04-16T14:09:06;12.30;99.90
16200;DHT22;8207;52.494;4.654;2023-04-16T14:11:35;12.30;99.90
16200;DHT22;8207;52.494;4.654;2023-04-16T14:14:02;12.10;99.90
16200;DHT22;8207;52.494;4.654;2023-04-16T14:16:29;12.10;99.90
16200;DHT22;8207;52.494;4.654;2023-04-16T14:18:57;12.00;99.90
16200;DHT22;8207;52.494;4.654;2023-04-16T14:21:24;12.00;99.90
16200;DHT22;8207;52.494;4.654;2023-04-16T14:23:51;12.00;99.90
16200;DHT22;8207;52.494;4.654;2023-04-16T14:26:18;11.90;99.90
16200;DHT22;8207;52.494;4.654;2023-04-16T14:28:45;11.90;99.90
16200;DHT22;8207;52.494;4.654;2023-04-16T14:31:12;12.00;99.90
16200;DHT22;8207;52.494;4.654;2023-04-16T14:33:39;11.90;99.90
16200;DHT22;8207;52.494;4.654;2023-04-16T14:36:07;11.90;99.90
16200;DHT22;8207;52.494;4.654;2023-04-16T14:38:34;11.90;99.90
16200;DHT22;8207;52.494;4.654;2023-04-16T14:41:01;11.90;99.90
16200;DHT22;8207;52.494;4.654;2023-04-16T14:43:28;11.90;99.90
16200;DHT22;8207;52.494;4.654;2023-04-16T14:45:55;12.00;99.90
16200;DHT22;8207;52.494;4.654;2023-04-16T14:48:23;12.00;99.90
16200;DHT22;8207;52.494;4.654;2023-04-16T14:50:50;12.20;99.90
16200;DHT22;8207;52.494;4.654;2023-04-16T14:53:18;12.10;99.90
16200;DHT22;8207;52.494;4.654;2023-04-16T14:55:45;12.20;99.90
16200;DHT22;8207;52.494;4.654;2023-04-16T14:58:12;12.10;99.90
16200;DHT22;8207;52.494;4.654;2023-04-16T15:00:39;12.10;99.90
16200;DHT22;8207;52.494;4.654;2023-04-16T15:03:05;11.90;99.90
16200;DHT22;8207;52.494;4.654;2023-04-16T15:05:34;11.80;99.90
16200;DHT22;8207;52.494;4.654;2023-04-16T15:08:00;11.70;99.90
16200;DHT22;8207;52.494;4.654;2023-04-16T15:10:29;11.70;99.90
16200;DHT22;8207;52.494;4.654;2023-04-16T15:12:57;11.70;99.90
16200;DHT22;8207;52.494;4.654;2023-04-16T15:15:24;11.60;99.90
16200;DHT22;8207;52.494;4.654;2023-04-16T15:17:51;11.70;99.90
16200;DHT22;8207;52.494;4.654;2023-04-16T15:20:18;11.80;99.90
16200;DHT22;8207;52.494;4.654;2023-04-16T15:22:45;11.70;99.90
16200;DHT22;8207;52.494;4.654;2023-04-16T15:25:12;11.80;99.90
16200;DHT22;8207;52.494;4.654;2023-04-16T15:27:40;11.80;99.90
16200;DHT22;8207;52.494;4.654;2023-04-16T15:30:08;11.90;99.90
16200;DHT22;8207;52.494;4.654;2023-04-16T15:32:35;11.90;99.90
16200;DHT22;8207;52.494;4.654;2023-04-16T15:35:02;11.80;99.90
16200;DHT22;8207;52.494;4.654;2023-04-16T15:37:29;11.80;99.90
16200;DHT22;8207;52.494;4.654;2023-04-16T15:39:56;11.70;99.90
16200;DHT22;8207;52.494;4.654;2023-04-16T15:42:23;11.70;99.90
16200;DHT22;8207;52.494;4.654;2023-04-16T15:44:51;11.70;99.90
16200;DHT22;8207;52.494;4.654;2023-04-16T15:47:18;11.60;99.90
16200;DHT22;8207;52.494;4.654;2023-04-16T15:49:45;11.50;99.90
16200;DHT22;8207;52.494;4.654;2023-04-16T15:52:12;11.50;99.90
16200;DHT22;8207;52.494;4.654;2023-04-16T15:54:39;11.40;99.90
16200;DHT22;8207;52.494;4.654;2023-04-16T15:57:06;11.40;99.90
16200;DHT22;8207;52.494;4.654;2023-04-16T15:59:33;11.30;99.90
16200;DHT22;8207;52.494;4.654;2023-04-16T16:02:01;11.30;99.90